Time;durP1;ratioP1;P1;durP2;ratioP2;P2;SDS_P1;SDS_P2;PMS_P1;PMS_P2;Temp;Humidity;BMP_temperature;BMP_pressure;BME280_temperature;BME280_humidity;BME280_pressure;Samples;Min_cycle;Max_cycle;Signal;HPM_P1;HPM_P2
2023/01/14 00:02:09;;;;;;;9.57;3.40;;;;;;;10.16;59.92;99167.47;7004555;28;20320;-79
2023/01/14 00:05:30;;;;;;;4.27;2.63;;;;;;;10.22;60.91;99193.63;7004128;28;20230;-80
2023/01/14 00:08:55;;;;;;;5.70;2.80;;;;;;;10.37;59.99;99193.56;7002478;28;20687;-80
2023/01/14 00:12:20;;;;;;;5.33;2.70;;;;;;;10.53;59.29;99183.34;7005237;28;20335;-79
2023/01/14 00:15:51;;;;;;;3.77;2.27;;;;;;;10.58;59.41;99188.97;7002860;28;20226;-79
2023/01/14 00:19:13;;;;;;;6.97;2.60;;;;;;;10.76;58.57;99186.63;7002979;28;20195;-79
2023/01/14 00:22:34;;;;;;;5.27;3.33;;;;;;;10.92;57.58;99188.19;7002903;28;20732;-79
2023/01/14 00:26:03;;;;;;;7.33;3.87;;;;;;;10.87;57.53;99194.16;7002996;28;20228;-79
2023/01/14 00:29:26;;;;;;;5.33;2.97;;;;;;;10.79;57.84;99180.84;7004038;28;20959;-79
2023/01/14 00:32:48;;;;;;;5.93;2.60;;;;;;;10.41;58.59;99193.00;7003493;28;20212;-79
2023/01/14 00:36:13;;;;;;;5.07;3.17;;;;;;;10.23;58.71;99176.47;7003358;28;20374;-79
2023/01/14 00:39:36;;;;;;;6.17;2.93;;;;;;;10.47;57.99;99189.53;7004113;28;20591;-80
2023/01/14 00:42:58;;;;;;;6.20;3.23;;;;;;;10.75;57.45;99192.22;7002236;28;20358;-79
2023/01/14 00:46:22;;;;;;;4.57;3.37;;;;;;;10.50;57.42;99181.03;7002464;28;20225;-80
2023/01/14 00:49:45;;;;;;;5.43;2.80;;;;;;;10.30;58.08;99179.19;7002559;28;20240;-79
2023/01/14 00:53:06;;;;;;;6.33;2.97;;;;;;;10.20;58.69;99186.78;7001850;28;20747;-79
2023/01/14 00:56:28;;;;;;;5.20;3.00;;;;;;;9.53;60.69;99198.88;7002077;28;20362;-79
2023/01/14 00:59:50;;;;;;;4.93;3.40;;;;;;;9.62;60.40;99197.75;7004664;28;20320;-80
2023/01/14 01:03:11;;;;;;;5.00;2.73;;;;;;;9.62;60.44;99206.66;7001800;28;20350;-79
2023/01/14 01:06:34;;;;;;;6.60;2.90;;;;;;;9.94;59.85;99200.81;7002282;28;20235;-79
2023/01/14 01:09:56;;;;;;;7.97;2.90;;;;;;;9.80;60.09;99217.03;7003871;28;20673;-79
2023/01/14 01:13:44;;;;;;;9.13;3.43;;;;;;;9.71;60.09;99224.38;7003043;28;20304;-80
2023/01/14 01:17:06;;;;;;;7.13;2.60;;;;;;;9.52;60.23;99207.97;6967341;28;20270;-80
2023/01/14 01:20:28;;;;;;;5.67;3.27;;;;;;;9.63;59.69;99215.56;7006435;28;20313;-79
2023/01/14 01:23:51;;;;;;;5.70;2.87;;;;;;;9.63;59.32;99210.19;7005160;28;20245;-77
2023/01/14 01:27:13;;;;;;;4.57;2.73;;;;;;;9.74;59.44;99240.13;6979094;28;20229;-77
2023/01/14 01:30:34;;;;;;;4.53;2.60;;;;;;;9.59;58.73;99177.44;6979676;28;20649;-77
2023/01/14 01:33:56;;;;;;;2.77;2.50;;;;;;;9.58;59.24;99220.69;6980269;28;20206;-77
2023/01/14 01:37:18;;;;;;;5.13;2.50;;;;;;;9.27;59.90;99218.22;6977186;28;20360;-77
2023/01/14 01:40:42;;;;;;;4.87;2.50;;;;;;;9.39;60.04;99232.84;6977951;28;20328;-77
2023/01/14 01:44:29;;;;;;;7.33;3.43;;;;;;;9.45;58.47;99224.03;6978591;28;20213;-77
2023/01/14 01:47:54;;;;;;;4.57;2.70;;;;;;;9.07;58.73;99165.16;6977780;28;20279;-78
2023/01/14 01:51:18;;;;;;;5.83;3.00;;;;;;;9.46;58.79;99200.66;6978971;28;20213;-77
2023/01/14 01:54:44;;;;;;;3.37;2.57;;;;;;;9.64;58.57;99230.69;6980470;28;20605;-77
2023/01/14 01:58:07;;;;;;;6.97;3.00;;;;;;;9.49;59.27;99241.50;7005409;28;20379;-77
2023/01/14 02:01:29;;;;;;;6.67;2.60;;;;;;;9.39;59.45;99245.50;7006023;28;20222;-77
2023/01/14 02:04:50;;;;;;;6.80;2.90;;;;;;;8.92;60.37;99233.41;7005356;28;20237;-77
2023/01/14 02:08:12;;;;;;;4.97;3.00;;;;;;;9.23;59.81;99211.56;7006142;28;20372;-78
2023/01/14 02:11:45;;;;;;;4.10;3.00;;;;;;;9.35;59.34;99238.81;7011359;22;20301;-79
2023/01/14 02:15:20;;;;;;;6.23;2.97;;;;;;;9.26;59.68;99248.84;6949611;28;20198;-79
2023/01/14 02:18:50;;;;;;;8.33;2.80;;;;;;;9.36;59.36;99252.09;6950516;28;20239;-79
2023/01/14 02:22:19;;;;;;;7.73;4.13;;;;;;;9.28;59.43;99227.13;6949148;28;20328;-79
2023/01/14 02:26:11;;;;;;;4.03;2.83;;;;;;;9.24;59.49;99239.28;6948181;28;20307;-79
2023/01/14 02:29:47;;;;;;;4.67;3.10;;;;;;;8.94;60.54;99240.28;6949191;28;20299;-79
2023/01/14 02:33:21;;;;;;;4.57;3.20;;;;;;;8.95;60.59;99241.13;6949894;28;20262;-79
2023/01/14 02:36:48;;;;;;;5.77;2.77;;;;;;;9.33;59.62;99224.72;6949029;28;20294;-79
2023/01/14 02:40:13;;;;;;;8.90;2.90;;;;;;;9.38;58.46;99206.97;6949789;28;20300;-79
2023/01/14 02:47:21;;;;;;;6.93;2.97;;;;;;;9.23;58.69;99219.63;6948842;28;20222;-78
2023/01/14 02:50:43;;;;;;;6.73;3.10;;;;;;;9.06;58.19;99219.97;6949846;28;20201;-79
2023/01/14 02:54:05;;;;;;;4.63;2.70;;;;;;;8.64;60.50;99230.50;6949735;28;20211;-79
2023/01/14 02:57:37;;;;;;;3.40;2.50;;;;;;;8.60;59.88;99199.63;6949049;28;20271;-79
2023/01/14 03:01:05;;;;;;;4.80;2.37;;;;;;;8.86;59.52;99209.97;6949742;28;20228;-79
2023/01/14 03:04:38;;;;;;;4.90;2.77;;;;;;;8.84;59.22;99210.13;6948433;28;20693;-79
2023/01/14 03:08:05;;;;;;;5.90;2.70;;;;;;;8.42;59.96;99182.19;6948997;28;20277;-79
2023/01/14 03:11:30;;;;;;;4.53;2.93;;;;;;;8.52;59.90;99209.63;6949490;28;20506;-79
2023/01/14 03:14:55;;;;;;;5.73;3.43;;;;;;;8.70;59.03;99215.50;6948955;28;20255;-78
2023/01/14 03:18:21;;;;;;;6.27;2.73;;;;;;;8.70;59.12;99213.66;6949901;28;20532;-79
2023/01/14 03:21:46;;;;;;;3.77;2.60;;;;;;;8.72;58.89;99197.34;6949515;28;20286;-78
2023/01/14 03:25:09;;;;;;;5.60;2.53;;;;;;;8.94;58.90;99208.03;6948762;28;20289;-79
2023/01/14 03:28:35;;;;;;;6.17;2.60;;;;;;;9.10;58.17;99205.97;6949780;28;20237;-78
2023/01/14 03:32:02;;;;;;;3.50;2.67;;;;;;;9.21;57.80;99215.44;6949235;28;20674;-78
2023/01/14 03:35:26;;;;;;;9.30;3.23;;;;;;;9.07;58.29;99204.69;6948075;28;20244;-78
2023/01/14 03:38:51;;;;;;;7.70;2.80;;;;;;;9.62;56.80;99205.84;6949529;28;20683;-78
2023/01/14 03:42:20;;;;;;;6.33;2.60;;;;;;;9.38;56.99;99196.22;6951804;28;20207;-78
2023/01/14 03:45:42;;;;;;;5.70;2.40;;;;;;;9.66;56.48;99189.09;6965744;28;20225;-78
2023/01/14 03:49:04;;;;;;;4.40;2.50;;;;;;;9.37;57.26;99193.69;6970420;28;20213;-78
2023/01/14 03:52:34;;;;;;;5.30;2.73;;;;;;;9.68;56.41;99176.28;6949820;28;20293;-78
2023/01/14 03:56:04;;;;;;;8.13;2.67;;;;;;;9.17;57.22;99163.84;6947919;28;20310;-79
2023/01/14 03:59:29;;;;;;;3.73;2.73;;;;;;;9.20;57.24;99141.13;6949143;28;20280;-79
2023/01/14 04:02:52;;;;;;;6.37;2.83;;;;;;;9.79;56.40;99169.53;6948151;28;20991;-77
2023/01/14 04:06:14;;;;;;;3.80;2.53;;;;;;;9.96;55.29;99166.44;6947779;28;20255;-79
2023/01/14 04:09:35;;;;;;;2.13;1.90;;;;;;;9.64;56.30;99158.00;6948158;28;20265;-78
2023/01/14 04:16:37;;;;;;;4.13;2.13;;;;;;;9.74;55.98;99131.63;6946980;28;20215;-79
2023/01/14 04:19:58;;;;;;;3.67;2.57;;;;;;;9.83;56.23;99130.44;6948095;28;20267;-79
2023/01/14 04:23:20;;;;;;;5.97;2.50;;;;;;;9.81;55.84;99127.13;6947598;28;20274;-78
2023/01/14 04:26:41;;;;;;;6.60;1.93;;;;;;;10.12;54.63;99117.72;6946600;28;20284;-78
2023/01/14 04:30:05;;;;;;;5.67;2.43;;;;;;;9.89;55.51;99117.06;6947518;28;20263;-79
2023/01/14 04:33:27;;;;;;;7.30;2.90;;;;;;;10.22;54.94;99122.75;6947588;28;20305;-79
2023/01/14 04:36:48;;;;;;;5.27;2.53;;;;;;;10.06;55.00;99117.66;6946483;28;20317;-79
2023/01/14 04:40:11;;;;;;;7.57;3.40;;;;;;;9.82;56.02;99120.72;6946298;28;20300;-79
2023/01/14 04:43:33;;;;;;;4.47;3.10;;;;;;;9.96;55.57;99117.09;6946761;28;20259;-79
2023/01/14 04:46:55;;;;;;;5.57;2.30;;;;;;;9.75;55.36;99106.34;6945879;28;20256;-79
2023/01/14 04:50:33;;;;;;;4.73;2.23;;;;;;;9.87;55.99;99113.69;6946667;28;20308;-79
2023/01/14 04:53:55;;;;;;;6.10;2.27;;;;;;;10.34;54.70;99118.50;6946640;28;20198;-79
2023/01/14 04:57:16;;;;;;;4.73;2.17;;;;;;;10.32;54.28;99124.09;6946469;28;20324;-78
2023/01/14 05:00:39;;;;;;;7.50;2.60;;;;;;;10.11;54.57;99096.34;6946566;28;20782;-79
2023/01/14 05:04:02;;;;;;;4.20;2.40;;;;;;;10.25;54.50;99116.97;6946283;28;20345;-79
2023/01/14 05:07:23;;;;;;;4.43;2.10;;;;;;;10.32;54.44;99113.31;6945875;28;20761;-79
2023/01/14 05:10:44;;;;;;;3.50;2.40;;;;;;;10.12;55.05;99120.41;6945988;28;20199;-79
2023/01/14 05:14:06;;;;;;;4.53;2.30;;;;;;;10.40;54.39;99109.63;6945894;28;20211;-79
2023/01/14 05:17:27;;;;;;;4.53;2.40;;;;;;;10.29;54.64;99107.47;6945296;28;20373;-79
2023/01/14 05:20:50;;;;;;;5.80;2.13;;;;;;;10.50;54.31;99113.63;6945497;28;20325;-78
2023/01/14 05:24:12;;;;;;;3.80;2.07;;;;;;;10.84;53.10;99094.78;6945484;28;20223;-79
2023/01/14 05:27:33;;;;;;;3.13;2.30;;;;;;;10.85;52.66;99084.78;6945294;28;20323;-79
2023/01/14 05:30:55;;;;;;;3.13;2.20;;;;;;;10.87;52.86;99097.06;6946099;28;20558;-79
2023/01/14 05:34:18;;;;;;;6.93;2.00;;;;;;;10.58;53.06;99089.22;6945273;28;20210;-79
2023/01/14 05:37:41;;;;;;;4.03;2.20;;;;;;;10.62;52.57;99093.19;6945202;28;20227;-79
2023/01/14 05:41:02;;;;;;;4.40;2.47;;;;;;;10.86;51.88;99098.09;6944968;28;20233;-79
2023/01/14 05:48:03;;;;;;;8.40;2.57;;;;;;;10.60;52.47;99097.09;6946147;28;20218;-81
2023/01/14 05:51:25;;;;;;;5.53;2.47;;;;;;;10.66;52.73;99088.22;6945814;28;20337;-79
2023/01/14 05:54:48;;;;;;;4.30;2.30;;;;;;;10.52;52.08;99052.25;6944985;28;20284;-79
2023/01/14 05:58:10;;;;;;;6.47;2.50;;;;;;;10.55;51.89;99059.13;6947653;28;20647;-79
2023/01/14 06:08:54;;;;;;;7.70;2.50;;;;;;;10.23;53.68;99079.47;6950058;28;20187;-81
2023/01/14 06:12:33;;;;;;;8.00;2.93;;;;;;;9.76;55.31;99062.25;6949822;28;20355;-78
2023/01/14 06:15:55;;;;;;;6.40;2.90;;;;;;;9.54;55.81;99053.34;6949426;28;20409;-79
2023/01/14 06:19:17;;;;;;;4.37;2.30;;;;;;;9.70;55.92;99063.81;6949417;28;20203;-79
2023/01/14 06:22:38;;;;;;;3.77;2.93;;;;;;;9.68;55.91;99067.78;6949661;28;20286;-79
2023/01/14 06:26:00;;;;;;;6.60;2.50;;;;;;;9.65;55.30;99082.44;6949428;28;20294;-79
2023/01/14 06:29:23;;;;;;;5.17;3.00;;;;;;;9.65;55.56;99074.38;6949402;28;20300;-79
2023/01/14 06:32:45;;;;;;;6.83;2.60;;;;;;;9.72;55.43;99071.72;6949014;28;20207;-79
2023/01/14 06:36:07;;;;;;;6.10;2.20;;;;;;;9.76;54.76;99064.94;6948073;28;20242;-79
2023/01/14 06:39:29;;;;;;;6.57;2.40;;;;;;;9.76;54.73;99060.41;6948471;28;20264;-79
2023/01/14 06:42:53;;;;;;;7.93;2.57;;;;;;;9.82;54.17;99039.91;6948342;28;20314;-78
2023/01/14 06:46:17;;;;;;;3.90;2.83;;;;;;;9.71;53.97;99024.28;6946364;28;20275;-78
2023/01/14 06:49:38;;;;;;;3.83;3.00;;;;;;;9.72;54.41;99042.94;6973755;28;20198;-78
2023/01/14 06:53:01;;;;;;;4.10;2.57;;;;;;;9.81;53.90;99049.03;6976057;28;20608;-79
2023/01/14 06:56:22;;;;;;;5.60;2.83;;;;;;;9.81;53.83;99051.72;6974364;28;20296;-78
2023/01/14 06:59:44;;;;;;;3.00;2.50;;;;;;;9.59;53.95;99012.38;6976994;28;20345;-78
2023/01/14 07:03:06;;;;;;;10.13;3.10;;;;;;;9.51;54.63;99034.88;6977252;28;20229;-78
2023/01/14 07:06:28;;;;;;;5.77;2.80;;;;;;;9.91;54.17;99018.03;6976574;28;20773;-79
2023/01/14 07:09:49;;;;;;;3.40;2.33;;;;;;;9.87;53.62;99002.47;6976896;28;20301;-79
2023/01/14 07:13:11;;;;;;;7.50;2.73;;;;;;;10.27;53.95;99018.72;6976739;28;20960;-78
2023/01/14 07:16:32;;;;;;;6.50;2.80;;;;;;;10.52;53.27;99011.00;6976535;28;20222;-78
2023/01/14 07:19:55;;;;;;;8.13;2.77;;;;;;;10.52;53.18;99006.44;6976867;28;20297;-78
2023/01/14 07:23:17;;;;;;;9.27;3.07;;;;;;;10.50;53.16;99007.69;6976209;28;20371;-78
2023/01/14 07:26:38;;;;;;;5.07;2.47;;;;;;;10.72;52.72;99010.06;6975711;28;20495;-77
2023/01/14 07:30:00;;;;;;;6.87;2.37;;;;;;;10.64;52.46;99018.31;6976136;28;20305;-77
2023/01/14 07:33:22;;;;;;;6.17;2.77;;;;;;;10.85;52.18;99007.41;6976767;28;20789;-78
2023/01/14 07:36:44;;;;;;;11.80;2.83;;;;;;;10.63;53.03;98984.28;6976154;28;20317;-77
2023/01/14 07:40:07;;;;;;;5.90;2.40;;;;;;;10.62;53.44;98973.72;6976285;28;20717;-78
2023/01/14 07:43:29;;;;;;;6.33;2.60;;;;;;;10.37;54.69;98972.56;6976172;28;20279;-78
2023/01/14 07:46:53;;;;;;;7.33;2.83;;;;;;;10.18;55.37;98970.59;6969325;28;20312;-77
2023/01/14 07:50:14;;;;;;;6.10;2.80;;;;;;;10.37;54.49;98934.81;6976468;28;20666;-76
2023/01/14 07:53:37;;;;;;;7.73;2.67;;;;;;;10.63;54.04;98964.59;6978954;28;20304;-77
2023/01/14 07:56:59;;;;;;;9.80;2.60;;;;;;;10.61;54.43;98937.00;6979414;28;20317;-78
2023/01/14 08:00:21;;;;;;;8.30;3.33;;;;;;;10.52;54.75;98924.75;6981068;28;20289;-78
2023/01/14 08:03:43;;;;;;;8.43;2.93;;;;;;;10.68;54.32;98927.91;6969781;28;20279;-78
2023/01/14 08:07:06;;;;;;;8.90;3.23;;;;;;;10.66;54.45;98927.28;6979606;28;20269;-78
2023/01/14 08:10:28;;;;;;;6.60;3.40;;;;;;;10.61;54.75;98893.84;6992337;28;20194;-78
2023/01/14 08:13:50;;;;;;;6.23;3.00;;;;;;;10.65;54.83;98911.31;6996490;28;20240;-78
2023/01/14 08:17:11;;;;;;;7.93;2.93;;;;;;;10.99;54.19;98900.38;6981950;28;20267;-78
2023/01/14 08:20:33;;;;;;;4.33;2.40;;;;;;;11.07;53.80;98911.81;6974425;28;20340;-78
2023/01/14 08:23:54;;;;;;;5.07;2.70;;;;;;;11.24;52.99;98887.94;6974984;28;20226;-78
2023/01/14 08:27:17;;;;;;;8.30;2.70;;;;;;;11.48;52.45;98898.13;6973809;28;20831;-78
2023/01/14 08:30:39;;;;;;;9.97;2.57;;;;;;;11.20;52.98;98917.22;6974774;28;20297;-78
2023/01/14 08:34:00;;;;;;;8.23;2.70;;;;;;;11.72;52.00;98913.72;6961716;28;20293;-78
2023/01/14 08:37:22;;;;;;;7.17;3.10;;;;;;;11.80;51.89;98916.22;6974890;28;20312;-79
2023/01/14 08:40:44;;;;;;;5.97;2.80;;;;;;;11.74;52.06;98923.28;6974684;28;20734;-78
2023/01/14 08:44:07;;;;;;;7.70;2.40;;;;;;;11.91;51.54;98915.53;6974932;28;20291;-78
2023/01/14 08:47:29;;;;;;;5.60;3.03;;;;;;;12.11;51.21;98910.94;6974329;28;20234;-79
2023/01/14 08:50:50;;;;;;;11.23;2.80;;;;;;;12.22;50.90;98908.41;6975185;28;20289;-78
2023/01/14 08:54:12;;;;;;;4.27;2.73;;;;;;;12.23;51.23;98911.94;6974240;28;20289;-80
2023/01/14 08:57:34;;;;;;;7.43;2.97;;;;;;;11.95;51.42;98877.09;6976078;28;20313;-80
2023/01/14 09:00:57;;;;;;;10.13;3.20;;;;;;;12.13;51.49;98900.75;6974723;28;20207;-78
2023/01/14 09:04:19;;;;;;;9.80;3.70;;;;;;;11.76;51.53;98840.16;6977056;28;20720;-77
2023/01/14 09:18:43;;;;;;;6.13;2.90;;;;;;;12.65;50.60;98868.91;6975623;28;20202;-78
2023/01/14 09:22:06;;;;;;;6.63;2.60;;;;;;;12.57;50.20;98879.97;6965430;28;20230;-78
2023/01/14 09:25:27;;;;;;;8.90;2.53;;;;;;;12.83;49.82;98889.81;6947221;28;20284;-78
2023/01/14 09:28:50;;;;;;;5.20;2.67;;;;;;;12.69;50.11;98861.19;6946767;28;20207;-78
2023/01/14 09:32:12;;;;;;;7.23;2.50;;;;;;;11.93;50.83;98844.03;6958972;28;20199;-78
2023/01/14 09:35:35;;;;;;;4.27;2.30;;;;;;;12.44;51.07;98857.56;6954478;28;20288;-79
2023/01/14 09:38:57;;;;;;;8.17;2.50;;;;;;;12.48;50.36;98838.00;6978456;28;20727;-78
2023/01/14 09:42:24;;;;;;;5.87;2.70;;;;;;;12.60;50.61;98854.38;6976210;28;20234;-78
2023/01/14 09:45:46;;;;;;;9.27;2.77;;;;;;;12.82;49.52;98843.00;6975821;28;20255;-78
2023/01/14 09:49:10;;;;;;;7.03;2.50;;;;;;;12.86;49.46;98851.53;6976615;28;20689;-78
2023/01/14 09:52:43;;;;;;;11.23;3.33;;;;;;;13.08;49.18;98840.13;6966875;28;20764;-78
2023/01/14 09:56:11;;;;;;;5.77;2.67;;;;;;;12.55;49.95;98838.78;6977559;28;20222;-77
2023/01/14 09:59:36;;;;;;;6.03;2.50;;;;;;;13.12;48.83;98829.69;6981567;28;20339;-77
2023/01/14 10:03:20;;;;;;;8.17;2.97;;;;;;;12.82;49.61;98821.38;6965449;28;20230;-77
2023/01/14 10:06:43;;;;;;;5.17;2.57;;;;;;;12.84;49.20;98799.47;6981832;28;20230;-78
2023/01/14 10:10:08;;;;;;;4.47;2.63;;;;;;;12.85;50.18;98807.38;6980294;28;20659;-78
2023/01/14 10:13:32;;;;;;;3.43;2.33;;;;;;;12.97;49.45;98815.63;6949915;28;20304;-78
2023/01/14 10:16:57;;;;;;;5.03;2.30;;;;;;;13.43;47.92;98811.50;6949661;28;20717;-78
2023/01/14 10:20:23;;;;;;;4.83;2.50;;;;;;;13.58;48.53;98808.44;6950493;28;20706;-78
2023/01/14 10:23:45;;;;;;;4.30;2.60;;;;;;;14.21;47.35;98807.13;6954948;28;20226;-78
2023/01/14 10:27:13;;;;;;;4.30;2.40;;;;;;;13.99;46.83;98792.34;6977276;28;20308;-78
2023/01/14 10:30:36;;;;;;;3.70;2.50;;;;;;;13.68;48.16;98785.19;6978455;28;20209;-80
2023/01/14 10:33:59;;;;;;;6.17;2.77;;;;;;;13.96;47.18;98776.53;6978529;28;20561;-78
2023/01/14 10:37:20;;;;;;;6.40;2.50;;;;;;;14.41;45.97;98767.00;6978448;28;20624;-78
2023/01/14 10:40:42;;;;;;;5.60;2.17;;;;;;;14.79;45.39;98745.75;6977879;28;20306;-79
2023/01/14 10:44:05;;;;;;;3.93;2.63;;;;;;;14.23;48.30;98693.81;6968645;28;20251;-80
2023/01/14 10:47:29;;;;;;;5.43;2.90;;;;;;;14.38;47.84;98715.91;6949788;28;20695;-80
2023/01/14 10:50:51;;;;;;;6.10;2.67;;;;;;;14.17;45.95;98651.34;6950764;28;20206;-81
2023/01/14 10:54:15;;;;;;;3.67;2.67;;;;;;;14.58;45.69;98705.59;6950771;28;20226;-80
2023/01/14 10:57:39;;;;;;;4.67;2.03;;;;;;;14.59;45.49;98710.78;6951485;28;20261;-80
2023/01/14 11:01:04;;;;;;;2.07;1.80;;;;;;;13.90;46.82;98691.53;6954323;28;20215;-79
2023/01/14 11:04:28;;;;;;;41.63;16.57;;;;;;;14.12;48.65;98681.00;6949603;28;20313;-81
2023/01/14 11:07:51;;;;;;;37.53;15.77;;;;;;;14.52;48.16;98685.63;6949172;28;20227;-81
2023/01/14 11:11:15;;;;;;;4.80;2.10;;;;;;;13.96;46.90;98679.78;6949396;28;20718;-79
2023/01/14 11:14:39;;;;;;;6.20;2.20;;;;;;;14.14;47.25;98659.91;6946986;28;20295;-79
2023/01/14 11:18:16;;;;;;;2.77;2.00;;;;;;;14.42;46.53;98636.56;6947512;28;20812;-78
2023/01/14 11:21:41;;;;;;;3.40;2.90;;;;;;;14.34;46.84;98639.59;6947318;28;20258;-78
2023/01/14 11:25:03;;;;;;;4.87;2.30;;;;;;;14.43;46.82;98631.94;6953842;28;20206;-77
2023/01/14 11:28:24;;;;;;;3.23;1.90;;;;;;;13.88;47.74;98625.91;6974670;28;20566;-79
2023/01/14 11:31:47;;;;;;;2.97;2.00;;;;;;;14.17;47.47;98599.81;6974801;28;20293;-78
2023/01/14 11:35:19;;;;;;;2.93;2.10;;;;;;;14.35;46.60;98606.03;6974366;28;20782;-77
2023/01/14 11:38:45;;;;;;;3.50;2.00;;;;;;;14.64;46.42;98615.13;6974207;28;20190;-78
2023/01/14 11:42:22;;;;;;;7.33;2.60;;;;;;;14.90;45.94;98598.34;6974156;28;20226;-78
2023/01/14 11:45:44;;;;;;;3.20;2.10;;;;;;;14.91;45.53;98605.41;6975086;28;20359;-78
2023/01/14 11:49:17;;;;;;;4.37;2.30;;;;;;;14.93;45.29;98587.84;6975503;28;20263;-78
2023/01/14 11:52:40;;;;;;;3.00;2.20;;;;;;;14.82;45.69;98587.84;6970546;28;20285;-77
2023/01/14 11:56:03;;;;;;;6.07;3.37;;;;;;;15.02;45.93;98585.56;6973832;28;20729;-77
2023/01/14 11:59:28;;;;;;;3.07;2.37;;;;;;;14.45;46.34;98578.31;6974954;28;20234;-78
2023/01/14 12:02:57;;;;;;;3.47;2.70;;;;;;;14.30;47.33;98562.50;6975617;28;20334;-78
2023/01/14 12:06:23;;;;;;;5.67;3.00;;;;;;;14.67;46.44;98555.78;6974554;28;20548;-77
2023/01/14 12:09:52;;;;;;;3.07;2.60;;;;;;;14.48;46.69;98505.41;6973771;28;20658;-78
2023/01/14 12:17:05;;;;;;;4.67;2.43;;;;;;;15.08;45.50;98517.56;6942754;28;20226;-77
2023/01/14 12:20:27;;;;;;;3.37;2.40;;;;;;;14.56;46.66;98506.91;6973595;28;20264;-77
2023/01/14 12:23:54;;;;;;;4.73;2.50;;;;;;;14.93;46.35;98506.38;6978147;28;20218;-77
2023/01/14 12:27:42;;;;;;;4.97;2.33;;;;;;;15.11;45.13;98465.50;7000919;28;20227;-77
2023/01/14 12:31:07;;;;;;;3.60;2.13;;;;;;;15.10;45.39;98472.00;6979816;28;20241;-77
2023/01/14 12:34:35;;;;;;;2.47;2.17;;;;;;;15.04;46.05;98477.59;6990155;28;20336;-78
2023/01/14 12:37:59;;;;;;;2.93;2.30;;;;;;;15.42;44.97;98470.47;6973299;28;20261;-78
2023/01/14 12:48:50;;;;;;;3.33;2.03;;;;;;;15.09;45.20;98426.91;6973963;28;20203;-78
2023/01/14 12:52:12;;;;;;;1.93;1.70;;;;;;;14.71;46.14;98412.28;6973939;28;20747;-78
2023/01/14 12:55:36;;;;;;;4.43;2.10;;;;;;;15.18;45.04;98420.03;6983099;28;20245;-78
2023/01/14 12:58:59;;;;;;;3.23;2.10;;;;;;;14.85;45.48;98394.66;7001290;28;20209;-79
2023/01/14 13:02:28;;;;;;;7.40;2.50;;;;;;;14.73;45.21;98383.84;6987116;28;20283;-79
2023/01/14 13:05:50;;;;;;;2.33;2.13;;;;;;;14.75;45.49;98383.63;6973687;28;20309;-78
2023/01/14 13:09:20;;;;;;;2.93;2.00;;;;;;;14.39;45.57;98351.41;6978659;28;20351;-78
2023/01/14 13:12:48;;;;;;;3.07;2.03;;;;;;;14.71;45.79;98391.44;6978697;28;20698;-79
2023/01/14 13:16:31;;;;;;;5.43;2.40;;;;;;;15.19;44.42;98366.53;6978257;28;20694;-79
2023/01/14 13:19:55;;;;;;;2.43;1.80;;;;;;;14.88;44.59;98348.03;6955552;28;20301;-79
2023/01/14 13:23:50;;;;;;;4.77;2.20;;;;;;;14.67;44.58;98344.13;6951097;28;20302;-78
2023/01/14 13:27:34;;;;;;;5.23;4.40;;;;;;;14.60;45.50;98348.88;6951107;28;20231;-78
2023/01/14 13:31:16;;;;;;;4.03;2.47;;;;;;;14.98;44.05;98342.81;6951115;28;20207;-77
2023/01/14 13:34:38;;;;;;;3.33;2.20;;;;;;;14.99;44.05;98339.03;6951049;28;20260;-80
2023/01/14 13:38:02;;;;;;;3.50;2.13;;;;;;;14.68;43.98;98318.63;6951571;28;20223;-79
2023/01/14 13:41:34;;;;;;;5.17;2.60;;;;;;;14.29;44.92;98313.25;6950830;28;20266;-78
2023/01/14 13:44:56;;;;;;;2.70;2.03;;;;;;;14.52;44.47;98307.75;6950827;28;20209;-77
2023/01/14 13:48:21;;;;;;;4.07;2.40;;;;;;;14.57;44.23;98281.50;6950519;28;20365;-77
2023/01/14 13:51:46;;;;;;;3.60;2.20;;;;;;;14.12;44.50;98255.38;6950587;28;20338;-77
2023/01/14 13:55:19;;;;;;;4.07;2.10;;;;;;;13.86;44.87;98242.38;6949929;28;20276;-78
2023/01/14 13:58:46;;;;;;;2.50;2.07;;;;;;;14.18;44.73;98259.84;6950567;28;20328;-78
2023/01/14 14:02:39;;;;;;;3.90;2.60;;;;;;;14.79;43.77;98287.06;6950686;28;20199;-78
2023/01/14 14:06:35;;;;;;;4.27;2.10;;;;;;;14.91;42.41;98272.38;6950341;28;20254;-78
2023/01/14 14:09:59;;;;;;;6.63;2.23;;;;;;;14.63;43.18;98218.13;6965141;28;20304;-77
2023/01/14 14:17:05;;;;;;;4.40;2.10;;;;;;;14.22;43.27;98242.06;6976968;28;20699;-78
2023/01/14 14:20:34;;;;;;;5.77;2.20;;;;;;;14.37;43.78;98226.06;6976024;28;20220;-79
2023/01/14 14:23:59;;;;;;;3.70;2.13;;;;;;;14.65;43.56;98226.03;6977875;28;20617;-78
2023/01/14 14:27:24;;;;;;;3.07;2.23;;;;;;;14.19;43.92;98237.09;6976684;28;20621;-78
2023/01/14 14:30:49;;;;;;;3.07;2.57;;;;;;;14.22;43.37;98218.47;6975010;28;20717;-77
2023/01/14 14:34:16;;;;;;;4.30;2.17;;;;;;;14.49;42.54;98218.69;6962295;28;20226;-79
2023/01/14 14:37:38;;;;;;;5.43;3.63;;;;;;;14.65;42.76;98220.63;6958437;28;20223;-78
2023/01/14 14:41:05;;;;;;;3.80;2.37;;;;;;;14.57;42.02;98238.09;6976673;28;20343;-79
2023/01/14 14:44:29;;;;;;;3.10;2.60;;;;;;;14.57;41.77;98193.91;6976140;28;20297;-79
2023/01/14 14:47:52;;;;;;;5.40;2.40;;;;;;;14.78;41.73;98244.72;6976619;28;20251;-79
2023/01/14 14:51:17;;;;;;;2.67;2.30;;;;;;;14.30;43.20;98257.94;6976883;28;20270;-78
2023/01/14 14:54:40;;;;;;;4.70;2.73;;;;;;;14.57;42.38;98219.13;6976527;28;20202;-78
2023/01/14 14:58:05;;;;;;;2.70;2.33;;;;;;;13.97;43.03;98187.31;6976144;28;20226;-79
2023/01/14 15:01:34;;;;;;;6.23;2.07;;;;;;;14.23;43.15;98238.28;6976891;28;20565;-79
2023/01/14 15:04:59;;;;;;;5.20;2.50;;;;;;;14.21;43.74;98226.88;6976545;28;20350;-78
2023/01/14 15:08:24;;;;;;;4.97;2.30;;;;;;;14.15;44.26;98187.94;6976640;28;20230;-79
2023/01/14 15:11:47;;;;;;;3.90;2.30;;;;;;;13.97;43.58;98168.31;6976760;28;20210;-81
2023/01/14 15:15:18;;;;;;;3.70;2.40;;;;;;;13.95;43.85;98156.91;6976159;28;20289;-78
2023/01/14 15:18:40;;;;;;;2.97;2.40;;;;;;;13.87;43.63;98143.78;6976115;28;20191;-79
2023/01/14 15:22:04;;;;;;;3.27;2.60;;;;;;;14.22;43.06;98161.53;6976018;28;20333;-77
2023/01/14 15:25:26;;;;;;;4.13;2.80;;;;;;;14.05;43.15;98133.53;6975527;28;20268;-78
2023/01/14 15:28:48;;;;;;;2.87;2.17;;;;;;;14.07;43.03;98136.84;6975405;28;20202;-78
2023/01/14 15:32:35;;;;;;;2.63;2.30;;;;;;;14.46;42.83;98151.38;6975981;28;20598;-78
2023/01/14 15:35:59;;;;;;;2.77;2.33;;;;;;;14.31;42.08;98140.25;6974915;28;20234;-78
2023/01/14 15:39:22;;;;;;;3.00;2.20;;;;;;;14.38;41.87;98147.19;6975581;28;20214;-78
2023/01/14 15:42:44;;;;;;;3.80;2.33;;;;;;;14.12;42.05;98138.81;6976038;28;20780;-79
2023/01/14 15:46:08;;;;;;;2.37;2.00;;;;;;;14.43;41.64;98160.00;6974861;28;20313;-77
2023/01/14 15:49:29;;;;;;;2.87;2.33;;;;;;;14.34;41.29;98175.03;6976034;28;20295;-79
2023/01/14 15:53:05;;;;;;;4.60;2.60;;;;;;;14.31;41.28;98180.94;6964318;28;20290;-78
2023/01/14 15:56:43;;;;;;;3.30;2.50;;;;;;;14.17;40.71;98153.25;6947881;28;20252;-78
2023/01/14 16:00:16;;;;;;;4.20;2.90;;;;;;;14.49;40.86;98168.00;6948021;28;20272;-78
2023/01/14 16:03:42;;;;;;;2.13;1.90;;;;;;;14.56;40.72;98159.69;6947047;28;20214;-78
2023/01/14 16:07:08;;;;;;;2.40;2.20;;;;;;;14.50;41.12;98171.50;6946149;28;20317;-78
2023/01/14 16:10:30;;;;;;;1.60;1.50;;;;;;;14.56;39.81;98173.25;6945230;28;20207;-80
2023/01/14 16:13:55;;;;;;;1.60;1.50;;;;;;;14.17;40.20;98174.97;6945215;28;20676;-78
2023/01/14 16:17:18;;;;;;;1.60;1.50;;;;;;;14.24;40.24;98164.00;6944777;28;20236;-78
2023/01/14 16:20:40;;;;;;;1.50;1.40;;;;;;;14.16;39.91;98129.94;6946056;28;20231;-79
2023/01/14 16:24:04;;;;;;;1.60;1.50;;;;;;;14.58;40.07;98161.06;6965214;28;20708;-78
2023/01/14 16:27:26;;;;;;;1.63;1.53;;;;;;;14.61;40.43;98151.63;6967334;28;20222;-79
2023/01/14 16:30:49;;;;;;;1.30;1.30;;;;;;;14.30;40.61;98147.59;6973562;28;20336;-78
2023/01/14 16:34:10;;;;;;;1.57;1.47;;;;;;;14.08;41.17;98143.91;6972711;28;20271;-78
2023/01/14 16:37:33;;;;;;;1.57;1.40;;;;;;;13.88;41.37;98127.28;6973677;28;20367;-78
2023/01/14 16:40:55;;;;;;;1.33;1.33;;;;;;;13.61;42.30;98114.50;6975032;28;20250;-78
2023/01/14 16:44:16;;;;;;;1.50;1.40;;;;;;;13.66;41.58;98107.34;6974954;28;20384;-78
2023/01/14 16:47:39;;;;;;;1.70;1.60;;;;;;;13.97;41.66;98078.91;6974617;28;20309;-79
2023/01/14 16:51:02;;;;;;;3.47;1.77;;;;;;;13.59;41.75;98111.25;6980973;28;20273;-78
2023/01/14 16:54:24;;;;;;;1.40;1.30;;;;;;;14.00;41.00;98108.22;6993871;28;20214;-78